createdAt,value
2017-06-29T00:00:35.048Z,93.3
2017-06-29T00:01:42.542Z,93.6
2017-06-29T00:02:50.037Z,92.3
2017-06-29T00:03:57.207Z,93.2
2017-06-29T00:05:04.702Z,93.2
2017-06-29T00:06:12.164Z,93.9
2017-06-29T00:07:19.658Z,93.4
2017-06-29T00:08:27.151Z,94.9
2017-06-29T00:09:34.645Z,94.2
2017-06-29T00:10:42.141Z,94.4
2017-06-29T00:11:49.615Z,94.6
2017-06-29T00:12:57.113Z,94.8
2017-06-29T00:14:04.617Z,94
2017-06-29T00:15:12.121Z,96.1
2017-06-29T00:16:19.623Z,95
2017-06-29T00:17:27.430Z,94.9
2017-06-29T00:18:34.947Z,96.1
2017-06-29T00:19:42.454Z,96.8
2017-06-29T00:20:49.613Z,95.9
2017-06-29T00:21:57.104Z,96.2
2017-06-29T00:23:04.906Z,95.8
2017-06-29T00:24:12.408Z,96.5
2017-06-29T00:25:19.243Z,95.3
2017-06-29T00:26:26.411Z,95.8
2017-06-29T00:27:33.912Z,95.8
2017-06-29T00:28:41.707Z,95.7
2017-06-29T00:29:49.454Z,95.7
2017-06-29T00:30:56.621Z,96.5
2017-06-29T00:32:04.125Z,95.7
2017-06-29T00:33:11.624Z,96
2017-06-29T00:34:19.433Z,96.7
2017-06-29T00:35:26.968Z,95.9
2017-06-29T00:36:35.435Z,96.1
2017-06-29T00:37:42.947Z,95.8
2017-06-29T00:38:50.452Z,96.1
2017-06-29T00:39:57.921Z,95.7
2017-06-29T00:41:05.420Z,96
2017-06-29T00:42:12.940Z,96.5
2017-06-29T00:43:20.468Z,95.9
2017-06-29T00:44:27.966Z,95.6
2017-06-29T00:45:35.759Z,95.7
2017-06-29T00:46:43.254Z,95.7
2017-06-29T00:47:50.755Z,95.4
2017-06-29T00:48:58.263Z,96.1
2017-06-29T00:50:05.758Z,95
2017-06-29T00:51:13.613Z,94.8
2017-06-29T00:52:21.338Z,94.7
2017-06-29T00:53:28.834Z,96.5
2017-06-29T00:54:36.350Z,95.6
2017-06-29T00:55:43.881Z,94.5
2017-06-29T00:56:51.686Z,95.8
2017-06-29T00:57:59.185Z,95.6
2017-06-29T00:59:06.685Z,95.3
2017-06-29T01:00:14.205Z,95.7
2017-06-29T01:01:21.370Z,95.4
2017-06-29T01:02:29.168Z,94.6
2017-06-29T01:03:36.668Z,94.5
2017-06-29T01:04:44.176Z,95.1
2017-06-29T01:05:51.679Z,95.2
2017-06-29T01:06:59.173Z,95.6
2017-06-29T01:08:06.975Z,94.7
2017-06-29T01:09:14.482Z,95.5
2017-06-29T01:10:21.646Z,95.1
2017-06-29T01:11:29.161Z,95.2
2017-06-29T01:12:36.875Z,95.1
2017-06-29T01:13:44.678Z,95.9
2017-06-29T01:14:52.215Z,95.3
2017-06-29T01:15:59.709Z,95.1
2017-06-29T01:17:07.213Z,94.9
2017-06-29T01:18:14.707Z,95.8
2017-06-29T01:19:22.555Z,94.9
2017-06-29T01:20:30.049Z,95
2017-06-29T01:21:37.538Z,95.5
2017-06-29T01:22:45.040Z,95.5
2017-06-29T01:23:52.537Z,95.6
2017-06-29T01:25:00.337Z,95
2017-06-29T01:26:07.838Z,95.6
2017-06-29T01:27:15.338Z,95.1
2017-06-29T01:28:22.852Z,95.2
2017-06-29T01:29:30.025Z,95.7
2017-06-29T01:30:37.850Z,94.4
2017-06-29T01:31:45.347Z,94.8
2017-06-29T01:32:52.853Z,95.6
2017-06-29T01:34:00.358Z,94.8
2017-06-29T01:35:07.899Z,95
2017-06-29T01:36:15.700Z,95.4
2017-06-29T01:37:23.195Z,94.9
2017-06-29T01:38:30.693Z,95.2
2017-06-29T01:39:38.186Z,95.5
2017-06-29T01:40:45.358Z,95.3
2017-06-29T01:41:53.156Z,95.3
2017-06-29T01:43:00.655Z,95.8
2017-06-29T01:44:08.159Z,95.7
2017-06-29T01:45:15.652Z,95.6
2017-06-29T01:46:23.154Z,95.9
2017-06-29T01:47:30.939Z,95.9
2017-06-29T01:48:38.852Z,96.3
2017-06-29T01:49:46.369Z,96.5
2017-06-29T01:50:53.864Z,96.2
2017-06-29T01:52:01.384Z,96.6
2017-06-29T01:53:08.874Z,96.2
2017-06-29T01:54:16.364Z,95.9
2017-06-29T01:55:23.865Z,96
2017-06-29T01:56:31.364Z,96.1
2017-06-29T01:57:38.859Z,96.1
2017-06-29T01:58:46.670Z,96.2
2017-06-29T01:59:54.175Z,96.4
2017-06-29T02:01:01.677Z,96.4
2017-06-29T02:02:08.836Z,96.2
2017-06-29T02:03:16.338Z,96.1
2017-06-29T02:04:24.144Z,95.7
2017-06-29T02:05:31.334Z,95.6
2017-06-29T02:06:38.829Z,95.7
2017-06-29T02:07:46.330Z,96.4
2017-06-29T02:08:53.835Z,96.6
2017-06-29T02:10:01.623Z,96.9
2017-06-29T02:11:08.807Z,97
2017-06-29T02:12:16.304Z,97.3
2017-06-29T02:13:23.829Z,97.8
2017-06-29T02:14:31.320Z,97.9
2017-06-29T02:15:38.462Z,98
2017-06-29T02:16:45.647Z,97.6
2017-06-29T02:17:53.141Z,98.3
2017-06-29T02:19:00.321Z,98.4
2017-06-29T02:20:07.820Z,98.5
2017-06-29T02:21:15.619Z,98.6
2017-06-29T02:22:23.127Z,98.7
2017-06-29T02:23:30.295Z,98.3
2017-06-29T02:24:37.788Z,98.5
2017-06-29T02:25:45.311Z,98.5
2017-06-29T02:26:52.786Z,98.9
2017-06-29T02:28:00.305Z,98.9
2017-06-29T02:29:07.817Z,97.7
2017-06-29T02:30:14.983Z,98.5
2017-06-29T02:31:22.145Z,98.9
2017-06-29T02:32:29.939Z,98.1
2017-06-29T02:33:37.120Z,98
2017-06-29T02:34:44.613Z,98.2
2017-06-29T02:35:51.456Z,99.1
2017-06-29T02:36:58.946Z,98.8
2017-06-29T02:38:06.752Z,98.9
2017-06-29T02:39:14.257Z,98.9
2017-06-29T02:40:21.418Z,99.3
2017-06-29T02:41:28.915Z,98.9
2017-06-29T02:42:36.423Z,98.1
2017-06-29T02:43:44.221Z,97.8
2017-06-29T02:44:51.750Z,97.5
2017-06-29T02:45:59.436Z,98.6
2017-06-29T02:47:06.953Z,98.1
2017-06-29T02:48:14.449Z,98
2017-06-29T02:49:22.248Z,97.5
2017-06-29T02:50:29.756Z,98.1
2017-06-29T02:51:37.254Z,97.8
2017-06-29T02:52:44.422Z,97.9
2017-06-29T02:53:51.913Z,97.6
2017-06-29T02:54:59.722Z,98.3
2017-06-29T02:56:07.234Z,97.7
2017-06-29T02:57:14.416Z,97.2
2017-06-29T02:58:21.584Z,97.4
2017-06-29T02:59:29.082Z,97.2
2017-06-29T03:00:36.874Z,96.9
2017-06-29T03:01:44.376Z,97.7
2017-06-29T03:02:51.881Z,97.7
2017-06-29T03:03:59.375Z,97.8
2017-06-29T03:05:06.545Z,97.7
2017-06-29T03:06:14.344Z,97.3
2017-06-29T03:07:21.843Z,97.4
2017-06-29T03:08:29.333Z,97.3
2017-06-29T03:09:36.829Z,97.3
2017-06-29T03:10:44.001Z,97.6
2017-06-29T03:11:51.794Z,97.9
2017-06-29T03:12:59.300Z,98.1
2017-06-29T03:14:06.799Z,97.7
2017-06-29T03:15:14.291Z,97.6
2017-06-29T03:16:21.786Z,97.5
2017-06-29T03:17:29.595Z,98.2
2017-06-29T03:18:37.088Z,97.3
2017-06-29T03:19:44.592Z,96.8
2017-06-29T03:20:52.089Z,97.1
2017-06-29T03:21:59.589Z,97.6
2017-06-29T03:23:07.412Z,97.7
2017-06-29T03:24:14.919Z,97.9
2017-06-29T03:25:22.439Z,97.1
2017-06-29T03:26:29.944Z,97.7
2017-06-29T03:27:37.461Z,97.4
2017-06-29T03:28:45.253Z,97.7
2017-06-29T03:29:52.767Z,96.7
2017-06-29T03:31:00.254Z,97.1
2017-06-29T03:32:07.749Z,96.8
2017-06-29T03:33:15.254Z,96.8
2017-06-29T03:34:23.059Z,97.1
2017-06-29T03:35:30.552Z,97.1
2017-06-29T03:36:38.049Z,97.2
2017-06-29T03:37:45.223Z,97.3
2017-06-29T03:38:52.721Z,97.5
2017-06-29T03:40:00.531Z,97.5
2017-06-29T03:41:08.029Z,97.4
2017-06-29T03:42:15.539Z,96.9
2017-06-29T03:43:23.058Z,96.9
2017-06-29T03:44:30.568Z,96.6
2017-06-29T03:45:38.370Z,96.6
2017-06-29T03:46:45.862Z,96.8
2017-06-29T03:47:53.359Z,97.5
2017-06-29T03:49:00.856Z,97.6
2017-06-29T03:50:08.355Z,97
2017-06-29T03:51:16.202Z,97.6
2017-06-29T03:52:23.696Z,98.1
2017-06-29T03:53:31.210Z,97.4
2017-06-29T03:54:38.713Z,97.3
2017-06-29T03:55:46.214Z,96.6
2017-06-29T03:56:54.019Z,97.1
2017-06-29T03:58:01.520Z,97.1
2017-06-29T03:59:09.016Z,97.5
2017-06-29T04:00:16.510Z,98.4
2017-06-29T04:01:23.997Z,96.5
2017-06-29T04:02:32.034Z,96.9
2017-06-29T04:03:39.530Z,96.9
2017-06-29T04:04:47.303Z,96.5
2017-06-29T04:05:54.810Z,96.6
2017-06-29T04:07:01.979Z,97.1
2017-06-29T04:08:09.768Z,96.6
2017-06-29T04:09:17.271Z,96.3
2017-06-29T04:10:24.764Z,97.3
2017-06-29T04:11:32.387Z,97.3
2017-06-29T04:12:39.893Z,97.2
2017-06-29T04:13:47.700Z,97.6
2017-06-29T04:14:55.204Z,97.4
2017-06-29T04:16:02.699Z,96.9
2017-06-29T04:17:10.189Z,97.3
2017-06-29T04:18:17.359Z,97.3
2017-06-29T04:19:25.159Z,96.9
2017-06-29T04:20:32.903Z,97.4
2017-06-29T04:21:40.400Z,97.4
2017-06-29T04:22:47.898Z,98.3
2017-06-29T04:23:55.402Z,97.4
2017-06-29T04:25:02.883Z,98.2
2017-06-29T04:26:10.056Z,97.4
2017-06-29T04:27:17.564Z,97.8
2017-06-29T04:28:25.061Z,98.2
2017-06-29T04:29:32.559Z,98
2017-06-29T04:30:40.062Z,98.1
2017-06-29T04:31:47.569Z,98.2
2017-06-29T04:32:55.091Z,97.7
2017-06-29T04:34:02.608Z,97.7
2017-06-29T04:35:10.113Z,97.7
2017-06-29T04:36:17.907Z,97.6
2017-06-29T04:37:25.423Z,97.5
2017-06-29T04:38:32.918Z,97.9
2017-06-29T04:39:40.435Z,98.4
2017-06-29T04:40:47.934Z,96.9
2017-06-29T04:41:55.435Z,97.5
2017-06-29T04:43:02.604Z,98.2
2017-06-29T04:44:10.102Z,97.3
2017-06-29T04:45:17.267Z,97.7
2017-06-29T04:46:24.770Z,98.2
2017-06-29T04:47:32.617Z,97.7
2017-06-29T04:48:40.115Z,97.7
2017-06-29T04:49:47.608Z,97.3
2017-06-29T04:50:55.104Z,97.5
2017-06-29T04:52:02.280Z,97.9
2017-06-29T04:53:09.755Z,97.7
2017-06-29T04:54:17.257Z,97.4
2017-06-29T04:55:24.440Z,97.7
2017-06-29T04:56:31.939Z,98.3
2017-06-29T04:57:39.445Z,98.2
2017-06-29T04:58:46.913Z,98.1
2017-06-29T04:59:54.423Z,98.1
2017-06-29T05:01:01.931Z,98.1
2017-06-29T05:02:09.097Z,97.8
2017-06-29T05:03:16.602Z,98.3
2017-06-29T05:04:24.112Z,97.6
2017-06-29T05:05:31.627Z,98.1
2017-06-29T05:06:39.122Z,97.7
2017-06-29T05:07:46.611Z,97.9
2017-06-29T05:08:54.416Z,97.6
2017-06-29T05:10:01.917Z,98.2
2017-06-29T05:11:09.080Z,97.6
2017-06-29T05:12:16.581Z,97.2
2017-06-29T05:13:24.093Z,97.1
2017-06-29T05:14:31.887Z,97
2017-06-29T05:15:39.387Z,97.6
2017-06-29T05:16:46.874Z,97.9
2017-06-29T05:17:54.387Z,97.7
2017-06-29T05:19:01.909Z,98
2017-06-29T05:20:09.714Z,97.6
2017-06-29T05:21:17.212Z,97.1
2017-06-29T05:22:24.711Z,98.1
2017-06-29T05:23:32.209Z,98
2017-06-29T05:24:39.703Z,97.7
2017-06-29T05:25:47.501Z,97.1
2017-06-29T05:26:54.675Z,97.2
2017-06-29T05:28:01.845Z,97.6
2017-06-29T05:29:09.021Z,97.3
2017-06-29T05:30:16.515Z,97.3
2017-06-29T05:31:24.032Z,97
2017-06-29T05:32:31.531Z,97.2
2017-06-29T05:33:39.023Z,96.8
2017-06-29T05:34:46.534Z,97.3
2017-06-29T05:35:53.699Z,97.6
2017-06-29T05:37:01.559Z,96.7
2017-06-29T05:38:09.082Z,97.3
2017-06-29T05:39:16.584Z,98
2017-06-29T05:40:24.084Z,97.8
2017-06-29T05:41:31.585Z,98
2017-06-29T05:42:39.085Z,98
2017-06-29T05:43:46.875Z,97.2
2017-06-29T05:44:54.379Z,97.7
2017-06-29T05:46:01.877Z,98
2017-06-29T05:47:09.395Z,97.5
2017-06-29T05:48:16.576Z,97.7
2017-06-29T05:49:24.044Z,97.6
2017-06-29T05:50:31.780Z,98.1
2017-06-29T05:51:39.272Z,98.3
2017-06-29T05:52:46.761Z,97.2
2017-06-29T05:53:54.260Z,97.5
2017-06-29T05:55:02.058Z,97.1
2017-06-29T05:56:09.576Z,97.4
2017-06-29T05:57:17.074Z,97.5
2017-06-29T05:58:24.263Z,97.1
2017-06-29T05:59:31.765Z,97.3
2017-06-29T06:00:39.251Z,96.9
2017-06-29T06:01:46.422Z,97.3
2017-06-29T06:02:53.909Z,97.2
2017-06-29T06:04:01.405Z,96.9
2017-06-29T06:05:08.914Z,96.5
2017-06-29T06:06:16.384Z,96.8
2017-06-29T06:07:23.886Z,97
2017-06-29T06:08:31.391Z,96.9
2017-06-29T06:09:38.893Z,97.2
2017-06-29T06:10:46.392Z,96.3
2017-06-29T06:11:54.183Z,96.7
2017-06-29T06:13:01.356Z,96.6
2017-06-29T06:14:08.861Z,96.3
2017-06-29T06:15:16.356Z,97.1
2017-06-29T06:16:24.806Z,96.9
2017-06-29T06:17:32.608Z,96
2017-06-29T06:18:40.126Z,96.7
2017-06-29T06:19:47.624Z,96.9
2017-06-29T06:20:55.136Z,96.8
2017-06-29T06:22:02.633Z,96.6
2017-06-29T06:23:10.127Z,97.4
2017-06-29T06:24:17.622Z,96
2017-06-29T06:25:25.112Z,97.1
2017-06-29T06:26:32.283Z,97.1
2017-06-29T06:27:39.756Z,96
2017-06-29T06:28:47.251Z,96.9
2017-06-29T06:29:54.741Z,96.4
2017-06-29T06:31:02.242Z,96.3
2017-06-29T06:32:09.747Z,95.8
2017-06-29T06:33:17.538Z,96.1
2017-06-29T06:34:24.713Z,96.6
2017-06-29T06:35:32.211Z,96.4
2017-06-29T06:36:39.735Z,96.9
2017-06-29T06:37:46.907Z,96
2017-06-29T06:38:54.694Z,96.3
2017-06-29T06:40:02.188Z,96.2
2017-06-29T06:41:09.691Z,96.4
2017-06-29T06:42:17.195Z,95.8
2017-06-29T06:43:24.373Z,96.8
2017-06-29T06:44:32.173Z,95.9
2017-06-29T06:45:39.663Z,96
2017-06-29T06:46:47.164Z,96
2017-06-29T06:47:53.996Z,95.8
2017-06-29T06:49:01.185Z,96.2
2017-06-29T06:50:08.685Z,95.7
2017-06-29T06:51:16.183Z,96
2017-06-29T06:52:23.677Z,96.5
2017-06-29T06:53:31.209Z,96
2017-06-29T06:54:38.704Z,96.2
2017-06-29T06:55:46.525Z,96.4
2017-06-29T06:56:54.043Z,95.5
2017-06-29T06:58:01.539Z,96.6
2017-06-29T06:59:09.043Z,96.3
2017-06-29T07:00:16.534Z,96.2
2017-06-29T07:01:24.324Z,95.6
2017-06-29T07:02:31.823Z,96.7
2017-06-29T07:03:38.991Z,95.8
2017-06-29T07:04:46.169Z,96.5
2017-06-29T07:05:53.330Z,96
2017-06-29T07:07:00.830Z,96.3
2017-06-29T07:08:08.333Z,96.5
2017-06-29T07:09:15.834Z,96.5
2017-06-29T07:10:22.991Z,96.1
2017-06-29T07:11:30.497Z,96.5
2017-06-29T07:12:37.976Z,96.2
2017-06-29T07:13:45.475Z,96.6
2017-06-29T07:14:52.982Z,96.3
2017-06-29T07:16:00.481Z,96.4
2017-06-29T07:17:07.972Z,96.2
2017-06-29T07:18:15.165Z,96.7
2017-06-29T07:19:22.655Z,96.3
2017-06-29T07:20:30.153Z,95.8
2017-06-29T07:21:37.652Z,96.7
2017-06-29T07:22:45.151Z,96.3
2017-06-29T07:23:52.623Z,96.2
2017-06-29T07:25:00.130Z,95.8
2017-06-29T07:26:07.632Z,95.2
2017-06-29T07:27:14.805Z,96.4
2017-06-29T07:28:22.312Z,95.4
2017-06-29T07:29:29.810Z,95.5
2017-06-29T07:30:37.309Z,95.9
2017-06-29T07:31:45.148Z,96.6
2017-06-29T07:32:52.639Z,95.9
2017-06-29T07:33:59.804Z,95.9
2017-06-29T07:35:06.980Z,95.5
2017-06-29T07:36:14.478Z,96.2
2017-06-29T07:37:22.277Z,96.4
2017-06-29T07:38:29.453Z,96
2017-06-29T07:39:36.946Z,96.4
2017-06-29T07:40:44.111Z,96.7
2017-06-29T07:41:51.611Z,96.6
2017-06-29T07:42:59.422Z,96
2017-06-29T07:44:06.910Z,96.1
2017-06-29T07:45:14.415Z,96.1
2017-06-29T07:46:21.911Z,96.3
2017-06-29T07:47:29.414Z,96.2
2017-06-29T07:48:37.262Z,95.9
2017-06-29T07:49:44.763Z,95.8
2017-06-29T07:50:52.256Z,96.1
2017-06-29T07:52:00.709Z,95.8
2017-06-29T07:53:07.928Z,95.4
2017-06-29T07:54:15.448Z,95.5
2017-06-29T07:55:22.963Z,96.4
2017-06-29T07:56:30.464Z,96.1
2017-06-29T07:57:37.968Z,96.4
2017-06-29T07:58:45.461Z,96.6
2017-06-29T07:59:53.366Z,96.1
2017-06-29T08:01:00.863Z,95.9
2017-06-29T08:02:08.383Z,95.8
2017-06-29T08:03:15.544Z,96.1
2017-06-29T08:04:23.140Z,96.5
2017-06-29T08:05:30.990Z,96.8
2017-06-29T08:06:38.493Z,95.7
2017-06-29T08:07:45.990Z,95.7
2017-06-29T08:08:53.491Z,96.5
2017-06-29T08:10:00.650Z,95.5
2017-06-29T08:11:08.153Z,94.8
2017-06-29T08:12:15.651Z,95.3
2017-06-29T08:13:22.829Z,95
2017-06-29T08:14:30.322Z,94.6
2017-06-29T08:15:37.820Z,94.8
2017-06-29T08:16:45.612Z,95
2017-06-29T08:17:53.105Z,95
2017-06-29T08:19:00.608Z,95
2017-06-29T08:20:08.193Z,94.9
2017-06-29T08:21:15.687Z,93.6
2017-06-29T08:22:23.508Z,94.6
2017-06-29T08:23:31.007Z,94
2017-06-29T08:24:38.515Z,94.4
2017-06-29T08:25:46.006Z,95.2
2017-06-29T08:26:53.508Z,93.7
2017-06-29T08:28:01.355Z,93.4
2017-06-29T08:29:08.840Z,93.5
2017-06-29T08:30:16.391Z,92.7
2017-06-29T08:31:23.555Z,93.7
2017-06-29T08:32:30.964Z,93.7
2017-06-29T08:33:38.487Z,93
2017-06-29T08:34:45.653Z,93.7
2017-06-29T08:35:53.155Z,93.9
2017-06-29T08:37:00.662Z,93.5
2017-06-29T08:38:08.165Z,94.1
2017-06-29T08:39:15.963Z,93.4
2017-06-29T08:40:23.494Z,93.2
2017-06-29T08:41:31.688Z,93.4
2017-06-29T08:42:39.201Z,93.1
2017-06-29T08:43:46.708Z,93.2
2017-06-29T08:44:54.502Z,93.8
2017-06-29T08:46:02.016Z,93.8
2017-06-29T08:47:09.511Z,92.9
2017-06-29T08:48:17.004Z,92.5
2017-06-29T08:49:24.498Z,92.9
2017-06-29T08:50:32.391Z,93.3
2017-06-29T08:51:39.891Z,93.4
2017-06-29T08:52:47.056Z,93.3
2017-06-29T08:53:54.261Z,93
2017-06-29T08:55:01.768Z,93.5
2017-06-29T08:56:09.623Z,93.8
2017-06-29T08:57:17.149Z,93.7
2017-06-29T08:58:24.667Z,92.9
2017-06-29T08:59:32.158Z,93.1
2017-06-29T09:00:40.066Z,92.9
2017-06-29T09:01:47.919Z,94
2017-06-29T09:02:55.413Z,92.8
2017-06-29T09:04:02.915Z,93.3
2017-06-29T09:05:10.077Z,92.4
2017-06-29T09:06:17.242Z,93.1
2017-06-29T09:07:24.417Z,93.3
2017-06-29T09:08:32.222Z,93.2
2017-06-29T09:09:39.715Z,93.4
2017-06-29T09:10:47.203Z,93.1
2017-06-29T09:11:54.708Z,92.8
2017-06-29T09:13:02.206Z,92.9
2017-06-29T09:14:09.364Z,92.8
2017-06-29T09:15:16.532Z,93.5
2017-06-29T09:16:24.041Z,93
2017-06-29T09:17:31.208Z,92.7
2017-06-29T09:18:38.710Z,92.9
2017-06-29T09:19:46.515Z,93
2017-06-29T09:20:54.018Z,93.2
2017-06-29T09:22:01.199Z,93.5
2017-06-29T09:23:08.692Z,93
2017-06-29T09:24:16.203Z,93.7
2017-06-29T09:25:23.696Z,93.9
2017-06-29T09:26:31.196Z,94.1
2017-06-29T09:27:38.697Z,93.8
2017-06-29T09:28:46.194Z,91.7
2017-06-29T09:29:53.700Z,92.7
2017-06-29T09:31:01.488Z,93.5
2017-06-29T09:32:08.980Z,92.4
2017-06-29T09:33:16.159Z,92.5
2017-06-29T09:34:23.656Z,93.4
2017-06-29T09:35:31.163Z,92.4
2017-06-29T09:36:38.962Z,92.4
2017-06-29T09:37:46.497Z,92.4
2017-06-29T09:38:53.996Z,92.1
2017-06-29T09:40:01.161Z,92.8
2017-06-29T09:41:08.672Z,93.1
2017-06-29T09:42:16.171Z,93.9
2017-06-29T09:43:23.669Z,92
2017-06-29T09:44:31.163Z,92.1
2017-06-29T09:45:38.688Z,92.5
2017-06-29T09:46:46.208Z,92.9
2017-06-29T09:47:54.258Z,91.5
2017-06-29T09:49:01.422Z,91.7
2017-06-29T09:50:08.920Z,92.4
2017-06-29T09:51:16.412Z,92.6
2017-06-29T09:52:23.909Z,92.2
2017-06-29T09:53:31.381Z,92.7
2017-06-29T09:54:38.223Z,92.3
2017-06-29T09:55:45.390Z,93.2
2017-06-29T09:56:52.888Z,92.4
2017-06-29T09:58:00.860Z,92.2
2017-06-29T09:59:08.677Z,93.3
2017-06-29T10:00:15.850Z,92.5
2017-06-29T10:01:23.022Z,92.6
2017-06-29T10:02:30.522Z,93
2017-06-29T10:03:38.021Z,93.6
2017-06-29T10:04:45.517Z,92.7
2017-06-29T10:05:52.683Z,92.9
2017-06-29T10:06:59.525Z,93.1
2017-06-29T10:08:06.699Z,92.9
2017-06-29T10:09:14.207Z,92.7
2017-06-29T10:10:21.992Z,92.6
2017-06-29T10:11:29.489Z,93
2017-06-29T10:12:36.997Z,92.6
2017-06-29T10:13:43.844Z,93.1
2017-06-29T10:14:51.349Z,92.8
2017-06-29T10:15:59.141Z,93.2
2017-06-29T10:17:06.632Z,93.2
2017-06-29T10:18:14.129Z,93.3
2017-06-29T10:19:21.624Z,93.5
2017-06-29T10:20:29.124Z,93.2
2017-06-29T10:21:36.926Z,93.1
2017-06-29T10:22:44.439Z,93.2
2017-06-29T10:23:51.938Z,93.4
2017-06-29T10:24:59.430Z,93.3
2017-06-29T10:26:06.833Z,92.8
2017-06-29T10:27:14.628Z,93
2017-06-29T10:28:22.130Z,92.1
2017-06-29T10:29:29.624Z,92.7
2017-06-29T10:30:37.127Z,93.1
2017-06-29T10:31:44.624Z,93.3
2017-06-29T10:32:52.416Z,93.8
2017-06-29T10:33:59.909Z,93.2
2017-06-29T10:35:07.410Z,93.6
2017-06-29T10:36:14.909Z,93.3
2017-06-29T10:37:22.408Z,92.9
2017-06-29T10:38:30.460Z,92.8
2017-06-29T10:39:37.622Z,94.1
2017-06-29T10:40:44.812Z,93.4
2017-06-29T10:41:51.975Z,93.8
2017-06-29T10:42:59.469Z,93.9
2017-06-29T10:44:06.963Z,93.6
2017-06-29T10:45:14.468Z,92.9
2017-06-29T10:46:21.646Z,93.6
2017-06-29T10:47:28.805Z,93.1
2017-06-29T10:48:36.298Z,93
2017-06-29T10:49:44.094Z,93.4
2017-06-29T10:50:51.270Z,93.7
2017-06-29T10:51:58.764Z,93.8
2017-06-29T10:53:05.977Z,92.7
2017-06-29T10:54:13.481Z,93
2017-06-29T10:55:20.619Z,93.7
2017-06-29T10:56:28.116Z,92.8
2017-06-29T10:57:35.610Z,92.7
2017-06-29T10:58:43.112Z,92.9
2017-06-29T10:59:50.601Z,92.1
2017-06-29T11:00:58.403Z,92.6
2017-06-29T11:02:05.891Z,92.5
2017-06-29T11:03:13.386Z,92.2
2017-06-29T11:04:20.575Z,92.7
2017-06-29T11:05:28.076Z,92.7
2017-06-29T11:06:35.608Z,93.3
2017-06-29T11:07:43.110Z,93
2017-06-29T11:08:50.606Z,92.9
2017-06-29T11:09:57.795Z,93.2
2017-06-29T11:11:05.253Z,93.1
2017-06-29T11:12:12.750Z,93.1
2017-06-29T11:13:19.918Z,93.2
2017-06-29T11:14:27.758Z,92.6
2017-06-29T11:15:35.249Z,92.1
2017-06-29T11:16:43.059Z,93.2
2017-06-29T11:17:50.231Z,92.7
2017-06-29T11:18:57.730Z,93.1
2017-06-29T11:20:05.251Z,92.9
2017-06-29T11:21:12.752Z,92.5
2017-06-29T11:22:20.564Z,92.2
2017-06-29T11:23:28.071Z,92.2
2017-06-29T11:24:35.227Z,92.2
2017-06-29T11:25:42.721Z,92.6
2017-06-29T11:26:50.224Z,92.1
2017-06-29T11:27:57.952Z,92.4
2017-06-29T11:29:05.456Z,92.7
2017-06-29T11:30:12.961Z,92.1
2017-06-29T11:31:20.458Z,92.8
2017-06-29T11:32:27.955Z,93.2
2017-06-29T11:33:35.412Z,92.5
2017-06-29T11:34:42.925Z,92.3
2017-06-29T11:35:50.428Z,92.8
2017-06-29T11:36:57.616Z,93.1
2017-06-29T11:38:05.114Z,92.8
2017-06-29T11:39:12.262Z,93.5
2017-06-29T11:40:19.755Z,93.5
2017-06-29T11:41:26.926Z,92.9
2017-06-29T11:42:34.107Z,92.8
2017-06-29T11:43:41.607Z,93
2017-06-29T11:44:49.417Z,93.4
2017-06-29T11:45:56.947Z,92.9
2017-06-29T11:47:04.442Z,91.8
2017-06-29T11:48:11.945Z,92.7
2017-06-29T11:49:19.457Z,92
2017-06-29T11:50:26.698Z,92
2017-06-29T11:51:34.197Z,92.4
2017-06-29T11:52:41.698Z,91.5
2017-06-29T11:53:48.880Z,91.7
2017-06-29T11:54:56.384Z,91.8
2017-06-29T11:56:04.229Z,92.2
2017-06-29T11:57:11.407Z,91.5
2017-06-29T11:58:18.572Z,92.2
2017-06-29T11:59:26.069Z,91.8
2017-06-29T12:00:33.234Z,92.4
2017-06-29T12:01:40.698Z,92.7
2017-06-29T12:02:48.206Z,93.1
2017-06-29T12:03:55.390Z,91.4
2017-06-29T12:05:02.575Z,92.3
2017-06-29T12:06:09.750Z,92.3
2017-06-29T12:07:17.605Z,90.5
2017-06-29T12:08:25.101Z,92
2017-06-29T12:09:32.272Z,91.7
2017-06-29T12:10:39.448Z,91.6
2017-06-29T12:11:46.943Z,91.3
2017-06-29T12:12:54.769Z,91.3
2017-06-29T12:14:01.949Z,91.2
2017-06-29T12:15:09.442Z,91
2017-06-29T12:16:16.940Z,91.8
2017-06-29T12:17:24.440Z,91.7
2017-06-29T12:18:32.244Z,91.2
2017-06-29T12:19:39.749Z,91.4
2017-06-29T12:21:54.905Z,92.6
2017-06-29T12:23:02.398Z,91.2
2017-06-29T12:24:10.146Z,91
2017-06-29T12:25:17.619Z,92.5
2017-06-29T12:26:25.115Z,92
2017-06-29T12:27:32.627Z,91.6
2017-06-29T12:28:39.785Z,92.1
2017-06-29T12:29:47.294Z,91.8
2017-06-29T12:30:55.090Z,91.6
2017-06-29T12:32:02.266Z,91.1
2017-06-29T12:33:09.763Z,91.4
2017-06-29T12:34:17.277Z,91.8
2017-06-29T12:35:24.791Z,91.5
2017-06-29T12:36:32.583Z,91
2017-06-29T12:37:39.768Z,90.9
2017-06-29T12:38:46.935Z,91.3
2017-06-29T12:39:54.427Z,91.4
2017-06-29T12:41:01.934Z,91.2
2017-06-29T12:42:09.108Z,91
2017-06-29T12:43:16.612Z,91
2017-06-29T12:44:24.116Z,91.3
2017-06-29T12:45:31.612Z,91.4
2017-06-29T12:46:38.781Z,90.7
2017-06-29T12:47:46.583Z,91.7
2017-06-29T12:48:53.754Z,91.2
2017-06-29T12:50:00.940Z,91.2
2017-06-29T12:51:08.448Z,91.1
2017-06-29T12:52:15.988Z,90
2017-06-29T12:53:23.796Z,90.7
2017-06-29T12:54:31.296Z,91
2017-06-29T12:55:38.795Z,90.9
2017-06-29T12:56:46.294Z,91.1
2017-06-29T12:57:53.789Z,91
2017-06-29T12:59:01.597Z,91
2017-06-29T13:00:09.118Z,90.9
2017-06-29T13:01:16.629Z,91
2017-06-29T13:02:24.122Z,90.2
2017-06-29T13:03:31.300Z,90.5
2017-06-29T13:04:38.798Z,91.5
2017-06-29T13:05:46.306Z,90.6
2017-06-29T13:06:53.799Z,90.3
2017-06-29T13:08:00.957Z,90.5
2017-06-29T13:09:08.456Z,90.8
2017-06-29T13:10:16.255Z,91
2017-06-29T13:11:24.002Z,90.8
2017-06-29T13:12:31.487Z,91.6
2017-06-29T13:13:38.995Z,90.9
2017-06-29T13:14:46.168Z,91
2017-06-29T13:15:53.968Z,91.4
2017-06-29T13:17:01.136Z,91.7
2017-06-29T13:18:08.625Z,91.2
2017-06-29T13:19:15.487Z,91.5
2017-06-29T13:20:22.655Z,90.8
2017-06-29T13:21:30.457Z,91.1
2017-06-29T13:22:37.971Z,90.8
2017-06-29T13:23:45.501Z,91.2
2017-06-29T13:24:52.992Z,91.7
2017-06-29T13:26:00.470Z,91.7
2017-06-29T13:27:07.954Z,91.4
2017-06-29T13:28:15.459Z,91.6
2017-06-29T13:29:22.953Z,90
2017-06-29T13:30:30.438Z,90.5
2017-06-29T13:31:38.222Z,90.8
2017-06-29T13:32:45.736Z,90.5
2017-06-29T13:33:52.893Z,90.5
2017-06-29T13:35:00.377Z,90.4
2017-06-29T13:36:07.540Z,90.1
2017-06-29T13:37:14.997Z,89.8
2017-06-29T13:38:22.476Z,90.3
2017-06-29T13:39:29.633Z,90.5
2017-06-29T13:40:37.118Z,89.8
2017-06-29T13:41:43.940Z,90.2
2017-06-29T13:42:51.715Z,90.5
2017-06-29T13:43:59.203Z,90.3
2017-06-29T13:45:06.693Z,90.5
2017-06-29T13:46:14.331Z,89.9
2017-06-29T13:47:21.826Z,91
2017-06-29T13:48:29.272Z,89.5
2017-06-29T13:49:36.768Z,88.2
2017-06-29T13:50:43.916Z,89.7
2017-06-29T13:51:51.106Z,90.6
2017-06-29T13:52:58.587Z,90
2017-06-29T13:54:05.743Z,90.4
2017-06-29T13:55:13.300Z,86.8
2017-06-29T13:56:20.464Z,87.3
2017-06-29T13:57:27.973Z,87.2
2017-06-29T13:58:35.126Z,88.7
2017-06-29T13:59:42.912Z,87.1
2017-06-29T14:00:50.080Z,88.6
2017-06-29T14:01:57.246Z,87.8
2017-06-29T14:03:04.766Z,87
2017-06-29T14:04:12.257Z,87.8
2017-06-29T14:05:20.044Z,87.4
2017-06-29T14:06:27.531Z,86.8
2017-06-29T14:07:34.684Z,89.6
2017-06-29T14:08:42.166Z,84.2
2017-06-29T14:09:49.650Z,86.3
2017-06-29T14:10:56.776Z,86.6
2017-06-29T14:12:04.289Z,87.1
2017-06-29T14:13:11.768Z,86.6
2017-06-29T14:14:19.252Z,89
2017-06-29T14:15:26.741Z,85.3
2017-06-29T14:16:34.236Z,85.8
2017-06-29T14:17:41.722Z,85.4
2017-06-29T14:18:49.189Z,84.2
2017-06-29T14:19:56.671Z,85.4
2017-06-29T14:21:04.427Z,85.1
2017-06-29T14:22:12.151Z,85.3
2017-06-29T14:23:19.640Z,84.4
2017-06-29T14:24:27.474Z,84
2017-06-29T14:25:34.965Z,85.1
2017-06-29T14:26:42.118Z,84.4
2017-06-29T14:27:49.790Z,83.4
2017-06-29T14:28:56.945Z,85.2
2017-06-29T14:30:04.729Z,84.6
2017-06-29T14:31:12.210Z,85.8
2017-06-29T14:32:19.370Z,84.3
2017-06-29T14:33:26.856Z,84.4
2017-06-29T14:34:34.341Z,85.4
2017-06-29T14:35:41.854Z,84.4
2017-06-29T14:36:49.338Z,82.1
2017-06-29T14:37:56.822Z,81.4
2017-06-29T14:39:04.299Z,82.3
2017-06-29T14:40:11.785Z,82.5
2017-06-29T14:41:19.656Z,82
2017-06-29T14:42:26.832Z,81.3
2017-06-29T14:43:33.997Z,83.3
2017-06-29T14:44:41.155Z,82.1
2017-06-29T14:45:48.642Z,83.3
2017-06-29T14:46:56.103Z,83
2017-06-29T14:48:03.589Z,82.9
2017-06-29T14:49:11.080Z,81.3
2017-06-29T14:50:18.235Z,81.9
2017-06-29T14:51:25.726Z,79.9
2017-06-29T14:52:33.512Z,81.4
2017-06-29T14:53:40.988Z,81.4
2017-06-29T14:54:48.144Z,79.3
2017-06-29T14:55:55.673Z,79.5
2017-06-29T14:57:02.827Z,79.5
2017-06-29T14:58:10.671Z,80.5
2017-06-29T14:59:18.159Z,78.5
2017-06-29T15:00:25.845Z,78.5
2017-06-29T15:01:33.328Z,79.1
2017-06-29T15:02:40.490Z,78.6
2017-06-29T15:03:48.346Z,77.3
2017-06-29T15:04:55.508Z,77.3